Time;durP1;ratioP1;P1;durP2;ratioP2;P2;SDS_P1;SDS_P2;PMS_P1;PMS_P2;Temp;Humidity;BMP_temperature;BMP_pressure;BME280_temperature;BME280_humidity;BME280_pressure;Samples;Min_cycle;Max_cycle;Signal;HPM_P1;HPM_P2
2022/01/14 00:00:57;;;;;;;17.33;6.78;;;;;;;;;;4973288;28;20523;-71
2022/01/14 00:03:22;;;;;;;16.13;6.80;;;;;;;;;;4992115;28;20510;-72
2022/01/14 00:05:48;;;;;;;17.02;6.68;;;;;;;;;;4992198;28;20395;-71
2022/01/14 00:08:13;;;;;;;17.45;7.00;;;;;;;;;;4992337;28;20051;-72
2022/01/14 00:10:41;;;;;;;15.77;7.07;;;;;;;;;;4991858;28;20479;-72
2022/01/14 00:13:15;;;;;;;16.92;6.45;;;;;;;;;;4992052;28;20343;-72
2022/01/14 00:15:41;;;;;;;16.75;7.70;;;;;;;;;;4990980;28;20462;-72
2022/01/14 00:18:06;;;;;;;13.35;6.55;;;;;;;;;;4974159;28;20298;-72
2022/01/14 00:20:31;;;;;;;17.00;7.20;;;;;;;;;;4991499;28;20463;-72
2022/01/14 00:22:59;;;;;;;13.40;5.70;;;;;;;;;;4991655;28;20064;-72
2022/01/14 00:33:32;;;;;;;15.40;6.30;;;;;;;;;;4990950;28;20439;-72
2022/01/14 00:35:57;;;;;;;14.63;6.85;;;;;;;;;;4972923;28;20383;-71
2022/01/14 00:38:23;;;;;;;14.70;6.90;;;;;;;;;;4991829;28;20398;-73
2022/01/14 00:40:48;;;;;;;16.20;6.55;;;;;;;;;;4972759;28;20456;-72
2022/01/14 00:43:15;;;;;;;13.25;5.90;;;;;;;;;;4990578;28;20029;-72
2022/01/14 00:45:41;;;;;;;17.00;6.43;;;;;;;;;;4973227;28;20119;-72
2022/01/14 00:48:06;;;;;;;15.50;6.50;;;;;;;;;;4972699;28;20472;-72
2022/01/14 00:50:40;;;;;;;13.02;5.85;;;;;;;;;;4990031;28;20390;-72
2022/01/14 00:53:06;;;;;;;13.88;5.75;;;;;;;;;;4973883;28;20072;-72
2022/01/14 00:55:45;;;;;;;11.95;5.22;;;;;;;;;;4990652;28;20086;-72
2022/01/14 01:00:54;;;;;;;12.63;5.63;;;;;;;;;;4980755;28;20106;-72
2022/01/14 01:03:20;;;;;;;12.88;5.90;;;;;;;;;;4979362;28;20421;-72
2022/01/14 01:05:45;;;;;;;10.35;5.60;;;;;;;;;;4952619;28;20329;-72
2022/01/14 01:08:14;;;;;;;11.95;5.18;;;;;;;;;;4972258;28;20336;-72
2022/01/14 01:10:47;;;;;;;11.38;5.35;;;;;;;;;;4970870;28;20420;-72
2022/01/14 01:13:26;;;;;;;11.80;6.28;;;;;;;;;;4953586;28;20393;-72
2022/01/14 01:15:53;;;;;;;;;;;;;;;;;;4955228;28;20316;-72
2022/01/14 01:18:19;;;;;;;8.95;4.68;;;;;;;;;;4968832;28;20248;-72
2022/01/14 01:20:44;;;;;;;10.15;5.18;;;;;;;;;;4969916;28;20344;-73
2022/01/14 01:23:10;;;;;;;13.07;5.35;;;;;;;;;;4969879;28;20483;-71
2022/01/14 01:25:44;;;;;;;14.38;5.75;;;;;;;;;;4971005;28;20394;-71
2022/01/14 01:28:09;;;;;;;13.38;5.60;;;;;;;;;;4969747;28;20437;-72
2022/01/14 01:33:04;;;;;;;10.38;5.30;;;;;;;;;;4969894;28;20383;-72
2022/01/14 01:35:30;;;;;;;8.63;4.65;;;;;;;;;;4952453;28;20489;-72
2022/01/14 01:37:55;;;;;;;14.52;5.90;;;;;;;;;;4952905;28;20416;-72
2022/01/14 01:40:22;;;;;;;10.02;4.60;;;;;;;;;;4951956;28;20440;-72
2022/01/14 01:42:48;;;;;;;9.63;4.82;;;;;;;;;;4952189;28;20440;-71
2022/01/14 01:45:20;;;;;;;8.98;4.95;;;;;;;;;;4952262;28;20487;-72
2022/01/14 01:47:50;;;;;;;9.98;5.28;;;;;;;;;;4969296;28;20056;-72
2022/01/14 01:50:19;;;;;;;9.85;4.60;;;;;;;;;;4952749;28;20345;-72
2022/01/14 01:52:44;;;;;;;8.20;4.88;;;;;;;;;;4951433;28;20424;-72
2022/01/14 01:55:10;;;;;;;9.77;5.18;;;;;;;;;;4969063;28;20513;-72
2022/01/14 01:57:35;;;;;;;9.13;4.57;;;;;;;;;;4951573;28;20033;-72
2022/01/14 02:00:06;;;;;;;9.70;4.97;;;;;;;;;;4970686;28;20329;-72
2022/01/14 02:02:31;;;;;;;10.60;5.10;;;;;;;;;;4951324;28;20502;-72
2022/01/14 02:04:59;;;;;;;13.80;5.40;;;;;;;;;;4935864;28;20425;-72
2022/01/14 02:07:24;;;;;;;13.65;5.40;;;;;;;;;;4951543;28;20056;-72
2022/01/14 02:09:49;;;;;;;10.80;4.93;;;;;;;;;;4970535;28;20026;-72
2022/01/14 02:12:14;;;;;;;9.85;4.55;;;;;;;;;;4969369;28;20052;-72
2022/01/14 02:15:08;;;;;;;10.60;4.78;;;;;;;;;;4970605;28;20344;-72
2022/01/14 02:18:13;;;;;;;8.93;5.10;;;;;;;;;;4969383;28;20372;-73
2022/01/14 02:23:16;;;;;;;8.43;4.30;;;;;;;;;;4969365;28;20556;-72
2022/01/14 02:25:42;;;;;;;10.55;5.18;;;;;;;;;;4969205;28;20470;-72
2022/01/14 02:28:10;;;;;;;9.60;4.45;;;;;;;;;;4970187;28;20421;-72
2022/01/14 02:30:41;;;;;;;11.15;5.22;;;;;;;;;;4951438;28;20448;-72
2022/01/14 02:33:08;;;;;;;8.70;4.78;;;;;;;;;;4951400;28;20348;-73
2022/01/14 02:35:34;;;;;;;11.02;4.60;;;;;;;;;;4969266;28;20033;-72
2022/01/14 02:37:59;;;;;;;9.88;4.88;;;;;;;;;;4969057;28;20168;-72
2022/01/14 02:40:25;;;;;;;9.35;4.90;;;;;;;;;;4951088;28;20534;-72
2022/01/14 02:42:51;;;;;;;9.18;4.38;;;;;;;;;;4971060;28;20029;-72
2022/01/14 02:45:17;;;;;;;9.40;5.03;;;;;;;;;;4950942;28;20439;-72
2022/01/14 02:47:43;;;;;;;10.90;5.75;;;;;;;;;;4951527;28;20095;-72
2022/01/14 02:50:13;;;;;;;9.43;4.50;;;;;;;;;;4969083;28;20033;-72
2022/01/14 02:55:22;;;;;;;8.13;4.28;;;;;;;;;;4953348;28;20373;-72
2022/01/14 02:57:53;;;;;;;10.45;5.38;;;;;;;;;;4951463;28;20352;-72
2022/01/14 03:00:23;;;;;;;10.93;4.70;;;;;;;;;;4969174;28;20469;-72
2022/01/14 03:02:50;;;;;;;10.60;4.70;;;;;;;;;;4966944;28;20041;-72
2022/01/14 03:05:17;;;;;;;9.55;4.93;;;;;;;;;;4951743;28;20379;-72
2022/01/14 03:07:43;;;;;;;9.55;4.35;;;;;;;;;;4969341;28;20344;-72
2022/01/14 03:10:10;;;;;;;8.95;4.65;;;;;;;;;;4968785;28;20463;-72
2022/01/14 03:12:37;;;;;;;10.35;4.80;;;;;;;;;;4968651;28;20091;-72
2022/01/14 03:15:03;;;;;;;9.13;4.85;;;;;;;;;;4951509;28;20460;-72
2022/01/14 03:17:29;;;;;;;11.20;5.45;;;;;;;;;;4950887;28;20345;-72
2022/01/14 03:19:55;;;;;;;9.55;5.07;;;;;;;;;;4951249;28;20460;-72
2022/01/14 03:22:26;;;;;;;8.63;4.85;;;;;;;;;;4968863;28;20369;-72
2022/01/14 03:27:17;;;;;;;8.65;4.50;;;;;;;;;;4950884;28;20392;-72
2022/01/14 03:29:44;;;;;;;8.73;4.90;;;;;;;;;;4969345;28;20452;-73
2022/01/14 03:32:09;;;;;;;15.50;6.03;;;;;;;;;;4969230;28;20417;-72
2022/01/14 03:34:35;;;;;;;10.38;5.30;;;;;;;;;;4969991;28;20441;-72
2022/01/14 03:37:00;;;;;;;10.68;5.50;;;;;;;;;;4954167;28;20099;-73
2022/01/14 03:39:26;;;;;;;11.40;5.22;;;;;;;;;;4971769;28;20472;-72
2022/01/14 03:41:51;;;;;;;9.43;4.28;;;;;;;;;;4954645;28;20494;-72
2022/01/14 03:44:17;;;;;;;11.75;5.28;;;;;;;;;;4971046;28;20429;-72
2022/01/14 03:46:43;;;;;;;12.40;6.28;;;;;;;;;;4954382;28;20033;-72
2022/01/14 03:49:08;;;;;;;10.82;5.63;;;;;;;;;;4971777;28;20352;-72
2022/01/14 03:51:34;;;;;;;8.95;5.07;;;;;;;;;;4954187;28;20396;-72
2022/01/14 03:53:59;;;;;;;12.02;4.65;;;;;;;;;;4954463;28;20436;-73
2022/01/14 03:56:28;;;;;;;11.93;5.43;;;;;;;;;;4954335;28;20425;-72
2022/01/14 03:58:54;;;;;;;9.88;4.80;;;;;;;;;;4954285;28;20337;-72
2022/01/14 04:01:20;;;;;;;10.95;5.47;;;;;;;;;;4954251;28;20329;-72
2022/01/14 04:03:46;;;;;;;9.60;5.05;;;;;;;;;;4953736;28;20329;-72
2022/01/14 04:06:12;;;;;;;12.50;5.60;;;;;;;;;;4954608;28;20460;-72
2022/01/14 04:08:37;;;;;;;10.77;4.70;;;;;;;;;;4971738;28;20373;-72
2022/01/14 04:11:04;;;;;;;11.23;5.20;;;;;;;;;;4971530;28;20405;-72
2022/01/14 04:13:45;;;;;;;10.88;5.32;;;;;;;;;;4953567;28;20495;-73
2022/01/14 04:16:11;;;;;;;9.88;5.00;;;;;;;;;;4956080;28;20421;-72
2022/01/14 04:18:36;;;;;;;8.55;4.68;;;;;;;;;;4953709;28;20440;-72
2022/01/14 04:21:02;;;;;;;10.45;4.43;;;;;;;;;;4954233;28;20353;-72
2022/01/14 04:23:27;;;;;;;10.02;5.00;;;;;;;;;;4971330;28;20421;-73
2022/01/14 04:25:54;;;;;;;8.20;5.03;;;;;;;;;;4972178;28;20436;-72
2022/01/14 04:28:24;;;;;;;10.90;5.75;;;;;;;;;;4971039;28;20052;-72
2022/01/14 04:30:54;;;;;;;11.27;4.80;;;;;;;;;;4953367;28;20091;-72
2022/01/14 04:33:26;;;;;;;9.40;5.30;;;;;;;;;;4970893;28;20364;-72
2022/01/14 04:35:54;;;;;;;8.73;4.70;;;;;;;;;;4971030;28;20171;-72
2022/01/14 04:38:19;;;;;;;8.10;4.32;;;;;;;;;;4876293;28;20361;-72
2022/01/14 04:40:45;;;;;;;15.23;5.55;;;;;;;;;;4948705;28;20040;-72
2022/01/14 04:43:12;;;;;;;8.93;4.90;;;;;;;;;;4970992;28;20452;-72
2022/01/14 04:48:05;;;;;;;8.50;4.20;;;;;;;;;;4970572;28;20487;-73
2022/01/14 04:50:31;;;;;;;7.68;4.20;;;;;;;;;;4952895;28;20344;-72
2022/01/14 04:52:56;;;;;;;9.02;5.10;;;;;;;;;;4952872;28;20360;-72
2022/01/14 04:55:23;;;;;;;12.45;5.35;;;;;;;;;;4952965;28;20055;-72
2022/01/14 04:57:50;;;;;;;11.50;5.15;;;;;;;;;;4953245;28;20029;-72
2022/01/14 05:00:28;;;;;;;11.80;5.57;;;;;;;;;;4971024;28;20463;-71
2022/01/14 05:02:55;;;;;;;10.68;4.53;;;;;;;;;;4952347;28;20468;-73
2022/01/14 05:05:23;;;;;;;9.82;5.00;;;;;;;;;;4953887;28;20083;-73
2022/01/14 05:07:50;;;;;;;8.30;4.93;;;;;;;;;;4952541;28;20064;-72
2022/01/14 05:10:34;;;;;;;9.50;4.35;;;;;;;;;;4952661;28;20018;-72
2022/01/14 05:12:59;;;;;;;10.43;4.65;;;;;;;;;;4904938;28;20408;-72
2022/01/14 05:15:25;;;;;;;11.82;5.35;;;;;;;;;;4969864;28;20310;-72
2022/01/14 05:17:50;;;;;;;10.65;5.30;;;;;;;;;;4970339;28;20083;-72
2022/01/14 05:20:17;;;;;;;11.27;5.22;;;;;;;;;;4970293;28;20049;-72
2022/01/14 05:22:42;;;;;;;15.13;6.03;;;;;;;;;;4970291;28;20467;-72
2022/01/14 05:25:09;;;;;;;8.25;4.65;;;;;;;;;;4953104;28;20363;-72
2022/01/14 05:27:35;;;;;;;8.32;4.78;;;;;;;;;;4970094;28;20436;-73
2022/01/14 05:30:02;;;;;;;9.32;4.93;;;;;;;;;;4971162;28;20475;-73
2022/01/14 05:32:28;;;;;;;9.40;4.60;;;;;;;;;;4952204;28;20360;-72
2022/01/14 05:34:53;;;;;;;10.77;4.43;;;;;;;;;;4952402;28;20051;-72
2022/01/14 05:37:19;;;;;;;11.82;5.15;;;;;;;;;;4970287;28;20380;-72
2022/01/14 05:39:44;;;;;;;11.15;5.13;;;;;;;;;;4952206;28;20341;-73
2022/01/14 05:42:10;;;;;;;10.65;5.50;;;;;;;;;;4969486;28;20484;-72
2022/01/14 05:44:35;;;;;;;9.45;4.93;;;;;;;;;;4952726;28;20314;-72
2022/01/14 05:47:01;;;;;;;11.90;5.18;;;;;;;;;;4971481;28;20400;-72
2022/01/14 05:49:27;;;;;;;10.90;4.43;;;;;;;;;;4952234;28;20112;-72
2022/01/14 05:51:53;;;;;;;10.02;5.40;;;;;;;;;;4951782;28;20475;-72
2022/01/14 05:54:19;;;;;;;9.57;4.95;;;;;;;;;;4969757;28;20543;-72
2022/01/14 05:56:45;;;;;;;12.52;5.68;;;;;;;;;;4951503;28;20344;-72
2022/01/14 05:59:11;;;;;;;11.18;4.90;;;;;;;;;;4969329;28;20437;-72
2022/01/14 06:01:37;;;;;;;9.57;4.95;;;;;;;;;;4951034;28;20457;-72
2022/01/14 06:04:03;;;;;;;9.82;5.30;;;;;;;;;;4969489;28;20448;-73
2022/01/14 06:06:29;;;;;;;11.50;5.82;;;;;;;;;;4951514;28;20343;-71
2022/01/14 06:08:54;;;;;;;11.93;5.25;;;;;;;;;;4951698;28;20345;-73
2022/01/14 06:11:20;;;;;;;10.43;5.13;;;;;;;;;;4951584;28;20421;-72
2022/01/14 06:13:46;;;;;;;12.25;5.45;;;;;;;;;;4951709;28;20305;-72
2022/01/14 06:16:11;;;;;;;10.75;5.28;;;;;;;;;;4969244;28;20029;-72
2022/01/14 06:18:36;;;;;;;11.23;5.53;;;;;;;;;;4969455;28;20030;-72
2022/01/14 06:21:03;;;;;;;11.80;5.68;;;;;;;;;;4934934;28;20395;-73
2022/01/14 06:23:28;;;;;;;14.05;6.05;;;;;;;;;;4951568;28;20112;-72
2022/01/14 06:25:54;;;;;;;8.52;4.50;;;;;;;;;;4969042;28;20447;-72
2022/01/14 06:28:19;;;;;;;10.43;5.18;;;;;;;;;;4952079;28;20343;-72
2022/01/14 06:30:44;;;;;;;8.93;4.90;;;;;;;;;;4969631;28;20352;-72
2022/01/14 06:33:10;;;;;;;10.73;4.95;;;;;;;;;;4967831;28;20376;-73
2022/01/14 06:35:36;;;;;;;11.30;5.97;;;;;;;;;;4951394;28;20453;-72
2022/01/14 06:38:01;;;;;;;10.30;4.95;;;;;;;;;;4969080;28;20038;-72
2022/01/14 06:40:28;;;;;;;11.15;6.05;;;;;;;;;;4951171;28;20345;-72
2022/01/14 06:42:54;;;;;;;10.15;4.35;;;;;;;;;;4969009;28;20380;-72
2022/01/14 06:45:20;;;;;;;8.80;4.70;;;;;;;;;;4952120;28;20030;-72
2022/01/14 06:47:45;;;;;;;11.38;4.80;;;;;;;;;;4935557;28;20507;-73
2022/01/14 06:50:10;;;;;;;12.52;5.82;;;;;;;;;;4969070;28;20399;-72
2022/01/14 06:52:36;;;;;;;11.05;6.22;;;;;;;;;;4968669;28;20413;-72
2022/01/14 06:55:01;;;;;;;10.63;4.90;;;;;;;;;;4968894;28;20119;-73
2022/01/14 06:57:27;;;;;;;11.80;5.88;;;;;;;;;;4968620;28;20345;-72
2022/01/14 06:59:52;;;;;;;12.90;5.63;;;;;;;;;;4951086;28;20499;-72
2022/01/14 07:02:17;;;;;;;9.25;4.57;;;;;;;;;;4968172;28;20604;-72
2022/01/14 07:04:43;;;;;;;12.02;4.75;;;;;;;;;;4970996;28;20328;-72
2022/01/14 07:07:09;;;;;;;8.40;4.35;;;;;;;;;;4950994;28;20348;-72
2022/01/14 07:09:35;;;;;;;12.38;5.60;;;;;;;;;;4953220;28;20467;-72
2022/01/14 07:12:03;;;;;;;10.25;5.20;;;;;;;;;;4972667;28;20446;-73
2022/01/14 07:14:29;;;;;;;9.10;4.03;;;;;;;;;;4972370;28;20034;-72
2022/01/14 07:16:56;;;;;;;9.10;4.30;;;;;;;;;;4954762;28;20436;-73
2022/01/14 07:19:22;;;;;;;10.02;4.60;;;;;;;;;;4973708;28;20528;-72
2022/01/14 07:21:48;;;;;;;10.15;4.75;;;;;;;;;;4972467;28;20423;-73
2022/01/14 07:24:13;;;;;;;7.78;4.50;;;;;;;;;;4954911;28;20428;-73
2022/01/14 07:26:40;;;;;;;9.30;4.53;;;;;;;;;;4954271;28;20049;-72
2022/01/14 07:29:05;;;;;;;11.75;5.07;;;;;;;;;;4954751;28;20448;-73
2022/01/14 07:31:31;;;;;;;10.65;4.95;;;;;;;;;;4973390;28;20436;-72
2022/01/14 07:33:56;;;;;;;9.02;4.78;;;;;;;;;;4954424;28;20499;-72
2022/01/14 07:36:22;;;;;;;9.25;4.80;;;;;;;;;;4972394;28;20056;-73
2022/01/14 07:38:47;;;;;;;9.68;4.40;;;;;;;;;;4954762;28;20586;-72
2022/01/14 07:41:13;;;;;;;9.10;4.00;;;;;;;;;;4972451;28;20092;-72
2022/01/14 07:43:39;;;;;;;10.02;5.13;;;;;;;;;;4970398;28;20368;-72
2022/01/14 07:46:05;;;;;;;5.75;3.70;;;;;;;;;;4971998;28;20411;-73
2022/01/14 07:48:31;;;;;;;9.75;4.70;;;;;;;;;;4954482;28;20336;-72
2022/01/14 07:50:57;;;;;;;10.77;4.40;;;;;;;;;;4972584;28;20029;-73
2022/01/14 07:53:22;;;;;;;10.07;4.70;;;;;;;;;;4972134;28;20329;-72
2022/01/14 07:55:47;;;;;;;11.68;4.25;;;;;;;;;;4971731;28;20537;-72
2022/01/14 07:58:13;;;;;;;10.07;5.10;;;;;;;;;;4890560;28;20057;-72
2022/01/14 08:00:39;;;;;;;8.82;4.80;;;;;;;;;;4950457;28;20443;-73
2022/01/14 08:03:04;;;;;;;9.25;4.28;;;;;;;;;;4971353;28;20388;-72
2022/01/14 08:05:30;;;;;;;11.70;5.05;;;;;;;;;;4971370;28;20340;-72
2022/01/14 08:07:58;;;;;;;8.95;4.78;;;;;;;;;;4972772;28;20348;-73
2022/01/14 08:10:23;;;;;;;9.68;4.20;;;;;;;;;;4953924;28;20376;-72
2022/01/14 08:12:49;;;;;;;12.73;5.88;;;;;;;;;;4971279;28;20416;-72
2022/01/14 08:15:14;;;;;;;8.88;4.53;;;;;;;;;;4953838;28;20471;-72
2022/01/14 08:17:40;;;;;;;11.65;5.28;;;;;;;;;;4972451;28;20104;-72
2022/01/14 08:20:06;;;;;;;8.48;4.13;;;;;;;;;;4971080;28;20017;-72
2022/01/14 08:22:32;;;;;;;10.40;4.57;;;;;;;;;;4953918;28;20037;-72
2022/01/14 08:24:58;;;;;;;9.93;4.80;;;;;;;;;;4953486;28;20099;-73
2022/01/14 08:27:26;;;;;;;9.88;4.95;;;;;;;;;;4953747;28;20428;-73
2022/01/14 08:29:51;;;;;;;9.15;4.32;;;;;;;;;;4937341;28;20337;-74
2022/01/14 08:32:17;;;;;;;7.93;4.45;;;;;;;;;;4971206;28;20341;-73
2022/01/14 08:34:43;;;;;;;9.80;5.00;;;;;;;;;;4953404;28;20094;-72
2022/01/14 08:37:08;;;;;;;8.82;4.88;;;;;;;;;;4970943;28;20456;-73
2022/01/14 08:39:33;;;;;;;8.60;4.10;;;;;;;;;;4971121;28;20542;-72
2022/01/14 08:41:59;;;;;;;8.80;4.70;;;;;;;;;;4953648;28;20500;-73
2022/01/14 08:44:25;;;;;;;11.70;4.75;;;;;;;;;;4953187;28;20502;-73
2022/01/14 08:46:55;;;;;;;8.70;4.55;;;;;;;;;;4970960;28;20467;-72
2022/01/14 08:49:20;;;;;;;12.52;5.20;;;;;;;;;;4953567;28;20423;-72
2022/01/14 08:51:47;;;;;;;9.65;4.70;;;;;;;;;;4952661;28;20397;-72
2022/01/14 08:54:12;;;;;;;9.35;4.72;;;;;;;;;;4953579;28;20375;-72
2022/01/14 08:56:38;;;;;;;7.75;4.57;;;;;;;;;;4952984;28;20033;-73
2022/01/14 08:59:04;;;;;;;9.93;4.90;;;;;;;;;;4970608;28;20405;-72
2022/01/14 09:01:30;;;;;;;9.43;4.85;;;;;;;;;;4952497;28;20345;-73
2022/01/14 09:03:56;;;;;;;10.30;5.22;;;;;;;;;;4971041;28;20380;-72
2022/01/14 09:06:21;;;;;;;11.10;5.05;;;;;;;;;;4971721;28;20322;-73
2022/01/14 09:08:49;;;;;;;8.07;4.45;;;;;;;;;;4970577;28;20352;-72
2022/01/14 09:11:15;;;;;;;9.13;5.22;;;;;;;;;;4970467;28;20329;-73
2022/01/14 09:13:40;;;;;;;9.73;4.63;;;;;;;;;;4972177;28;20684;-72
2022/01/14 09:16:06;;;;;;;11.10;5.15;;;;;;;;;;4970422;28;20051;-72
2022/01/14 09:18:31;;;;;;;10.00;4.70;;;;;;;;;;4970796;28;20439;-72
2022/01/14 09:20:58;;;;;;;11.10;5.07;;;;;;;;;;4971308;28;20033;-73
2022/01/14 09:23:25;;;;;;;9.23;5.05;;;;;;;;;;4971753;28;20429;-72
2022/01/14 09:25:54;;;;;;;11.05;4.95;;;;;;;;;;4970732;28;20671;-72
2022/01/14 09:28:20;;;;;;;12.90;6.25;;;;;;;;;;4970241;28;20487;-73
2022/01/14 09:30:45;;;;;;;10.23;4.90;;;;;;;;;;4971664;28;20389;-73
2022/01/14 09:33:10;;;;;;;16.48;7.05;;;;;;;;;;4969564;28;20120;-73
2022/01/14 09:35:37;;;;;;;11.05;5.70;;;;;;;;;;4970864;28;20347;-73
2022/01/14 09:38:02;;;;;;;10.85;5.45;;;;;;;;;;4970187;28;20026;-72
2022/01/14 09:40:28;;;;;;;11.43;5.38;;;;;;;;;;4970490;28;20401;-73
2022/01/14 09:43:00;;;;;;;7.90;4.88;;;;;;;;;;4970928;28;20397;-72
2022/01/14 09:45:25;;;;;;;12.35;5.38;;;;;;;;;;4970735;28;20179;-72
2022/01/14 09:47:51;;;;;;;9.85;5.43;;;;;;;;;;4952536;28;20495;-72
2022/01/14 09:50:18;;;;;;;17.70;6.05;;;;;;;;;;4970918;28;20413;-73
2022/01/14 09:52:45;;;;;;;9.95;5.40;;;;;;;;;;4952388;28;20483;-73
2022/01/14 09:55:11;;;;;;;13.63;5.63;;;;;;;;;;4969627;28;20412;-74
2022/01/14 09:57:36;;;;;;;14.07;6.35;;;;;;;;;;4969967;28;20107;-72
2022/01/14 10:00:06;;;;;;;8.52;5.32;;;;;;;;;;4969597;28;20401;-73
2022/01/14 10:02:34;;;;;;;13.30;5.07;;;;;;;;;;4969396;28;20046;-73
2022/01/14 10:05:00;;;;;;;8.70;4.70;;;;;;;;;;4952291;28;20506;-72
2022/01/14 10:07:25;;;;;;;13.25;6.43;;;;;;;;;;4969361;28;20503;-72
2022/01/14 10:09:57;;;;;;;11.88;4.97;;;;;;;;;;4951865;28;20440;-73
2022/01/14 10:12:23;;;;;;;15.07;7.47;;;;;;;;;;4970417;28;20447;-71
2022/01/14 10:15:03;;;;;;;18.77;6.88;;;;;;;;;;4952371;28;20317;-72
2022/01/14 10:17:57;;;;;;;27.45;7.60;;;;;;;;;;4951429;28;20395;-74
2022/01/14 10:20:22;;;;;;;21.38;7.75;;;;;;;;;;4946004;28;20419;-72
2022/01/14 10:22:48;;;;;;;14.05;7.15;;;;;;;;;;4948877;28;20368;-72
2022/01/14 10:25:17;;;;;;;18.33;7.28;;;;;;;;;;4948780;28;20340;-71
2022/01/14 10:27:50;;;;;;;19.75;6.78;;;;;;;;;;4948768;28;20029;-72
2022/01/14 10:30:31;;;;;;;15.55;6.90;;;;;;;;;;4948757;28;20433;-72
2022/01/14 10:33:07;;;;;;;13.48;6.97;;;;;;;;;;4967332;28;20578;-71
2022/01/14 10:35:38;;;;;;;15.80;6.03;;;;;;;;;;4969375;28;20500;-72
2022/01/14 10:38:05;;;;;;;13.52;6.15;;;;;;;;;;4951804;28;20417;-72
2022/01/14 10:40:35;;;;;;;20.85;7.28;;;;;;;;;;4951157;28;20491;-72
2022/01/14 10:43:04;;;;;;;;;;;;;;;;;;4969871;28;20068;-72
2022/01/14 10:45:29;;;;;;;18.20;6.68;;;;;;;;;;4954228;28;20324;-71
2022/01/14 10:48:03;;;;;;;12.57;6.00;;;;;;;;;;4973079;28;20413;-72
2022/01/14 10:50:38;;;;;;;16.52;6.20;;;;;;;;;;4955407;28;20496;-72
2022/01/14 10:53:09;;;;;;;13.82;6.30;;;;;;;;;;4955839;28;20368;-72
2022/01/14 10:55:38;;;;;;;12.52;5.70;;;;;;;;;;4955595;28;20318;-71
2022/01/14 10:58:12;;;;;;;12.73;6.53;;;;;;;;;;4955138;28;20352;-71
2022/01/14 11:00:43;;;;;;;11.43;5.72;;;;;;;;;;4955680;28;20498;-71
2022/01/14 11:03:09;;;;;;;15.02;6.00;;;;;;;;;;4955267;28;20085;-73
2022/01/14 11:05:35;;;;;;;13.23;6.28;;;;;;;;;;4955938;28;20021;-72
2022/01/14 11:08:01;;;;;;;11.55;6.10;;;;;;;;;;4955720;28;20091;-72
2022/01/14 11:10:34;;;;;;;10.25;4.95;;;;;;;;;;4955336;28;20033;-71
2022/01/14 11:13:01;;;;;;;12.93;5.88;;;;;;;;;;4955483;28;20383;-72
2022/01/14 11:15:27;;;;;;;9.45;5.35;;;;;;;;;;4955510;28;20506;-72
2022/01/14 11:17:55;;;;;;;12.18;5.65;;;;;;;;;;4954903;28;20367;-72
2022/01/14 11:20:31;;;;;;;11.20;5.72;;;;;;;;;;4973972;28;20372;-72
2022/01/14 11:23:15;;;;;;;15.23;6.25;;;;;;;;;;4956249;28;20340;-72
2022/01/14 11:25:46;;;;;;;14.40;5.53;;;;;;;;;;4972693;28;20328;-72
2022/01/14 11:28:14;;;;;;;10.45;5.18;;;;;;;;;;4972827;28;20332;-72
2022/01/14 11:30:40;;;;;;;10.90;5.63;;;;;;;;;;4971094;28;20445;-72
2022/01/14 11:33:07;;;;;;;10.80;5.28;;;;;;;;;;4954751;28;20401;-72
2022/01/14 11:35:35;;;;;;;11.57;5.43;;;;;;;;;;4954991;28;20328;-72
2022/01/14 11:38:01;;;;;;;11.07;4.95;;;;;;;;;;4954426;28;20103;-72
2022/01/14 11:40:26;;;;;;;11.90;5.13;;;;;;;;;;4954626;28;20364;-72
2022/01/14 11:42:58;;;;;;;13.02;5.60;;;;;;;;;;4954636;28;20329;-72
2022/01/14 11:45:40;;;;;;;12.13;5.13;;;;;;;;;;4972970;28;20519;-72
2022/01/14 11:48:06;;;;;;;13.65;4.93;;;;;;;;;;4972842;28;20440;-72
2022/01/14 11:50:31;;;;;;;13.07;5.43;;;;;;;;;;4881245;28;20523;-71
2022/01/14 11:52:58;;;;;;;9.13;4.55;;;;;;;;;;4955199;28;20453;-73
2022/01/14 11:55:23;;;;;;;8.15;4.47;;;;;;;;;;4971195;28;20476;-72
2022/01/14 11:58:21;;;;;;;11.43;5.55;;;;;;;;;;4898784;28;20452;-73
2022/01/14 12:00:47;;;;;;;8.88;4.47;;;;;;;;;;4970141;28;20611;-72
2022/01/14 12:03:13;;;;;;;9.95;4.38;;;;;;;;;;4971469;28;20547;-72
2022/01/14 12:05:53;;;;;;;8.10;4.60;;;;;;;;;;4972178;28;20499;-72
2022/01/14 12:08:20;;;;;;;10.77;5.00;;;;;;;;;;4972078;28;20456;-72
2022/01/14 12:10:57;;;;;;;9.45;4.45;;;;;;;;;;4971744;28;20446;-71
2022/01/14 12:13:38;;;;;;;7.40;4.80;;;;;;;;;;4953951;28;20048;-72
2022/01/14 12:16:19;;;;;;;10.43;5.30;;;;;;;;;;4971870;28;20491;-72
2022/01/14 12:18:56;;;;;;;11.50;3.42;;;;;;;;;;4971846;28;20514;-72
2022/01/14 12:21:44;;;;;;;8.77;4.15;;;;;;;;;;4971394;28;20414;-73
2022/01/14 12:24:19;;;;;;;9.43;5.10;;;;;;;;;;4956089;28;20340;-72
2022/01/14 12:27:09;;;;;;;8.30;4.70;;;;;;;;;;4972303;28;20652;-72
2022/01/14 12:29:39;;;;;;;13.18;5.10;;;;;;;;;;4971727;28;20108;-72
2022/01/14 12:32:05;;;;;;;9.50;4.28;;;;;;;;;;4971747;28;20440;-73
2022/01/14 12:34:32;;;;;;;9.43;4.47;;;;;;;;;;4971665;28;20361;-72
2022/01/14 12:36:58;;;;;;;9.77;4.85;;;;;;;;;;4937405;28;20329;-72
2022/01/14 12:39:24;;;;;;;10.68;4.95;;;;;;;;;;4953330;28;20344;-73
2022/01/14 12:41:54;;;;;;;8.25;4.43;;;;;;;;;;4972485;28;20026;-72
2022/01/14 12:44:21;;;;;;;10.50;4.75;;;;;;;;;;4970862;28;20499;-72
2022/01/14 12:46:54;;;;;;;10.23;5.03;;;;;;;;;;4971283;28;20364;-72
2022/01/14 12:49:35;;;;;;;7.50;3.88;;;;;;;;;;4954366;28;20383;-72
2022/01/14 12:52:12;;;;;;;11.32;5.03;;;;;;;;;;4970980;28;20029;-72
2022/01/14 12:54:40;;;;;;;9.98;4.07;;;;;;;;;;4971633;28;20318;-72
2022/01/14 12:57:06;;;;;;;7.30;4.13;;;;;;;;;;4970425;28;20458;-72
2022/01/14 12:59:43;;;;;;;11.95;5.35;;;;;;;;;;4953310;28;20368;-72
2022/01/14 13:02:15;;;;;;;8.25;4.32;;;;;;;;;;4970692;28;20449;-72
2022/01/14 13:04:40;;;;;;;10.98;4.90;;;;;;;;;;4971190;28;20508;-72
2022/01/14 13:07:07;;;;;;;9.48;4.43;;;;;;;;;;4970268;28;20448;-72
2022/01/14 13:09:38;;;;;;;14.02;5.13;;;;;;;;;;4971117;28;20356;-72
2022/01/14 13:12:10;;;;;;;9.82;4.47;;;;;;;;;;4953345;28;20427;-72
2022/01/14 13:14:44;;;;;;;13.75;5.57;;;;;;;;;;4953142;28;20826;-73
2022/01/14 13:17:15;;;;;;;7.15;4.03;;;;;;;;;;4970416;28;20037;-72
2022/01/14 13:19:42;;;;;;;10.73;4.20;;;;;;;;;;4972408;28;20460;-72
2022/01/14 13:22:09;;;;;;;8.23;4.45;;;;;;;;;;4952264;28;20396;-72
2022/01/14 13:24:46;;;;;;;8.88;4.57;;;;;;;;;;4970530;28;20595;-72
2022/01/14 13:27:13;;;;;;;10.65;5.05;;;;;;;;;;4952246;28;20357;-72
2022/01/14 13:29:44;;;;;;;9.77;4.78;;;;;;;;;;4952384;28;20510;-73
2022/01/14 13:32:11;;;;;;;10.32;5.10;;;;;;;;;;4969872;28;20460;-72
2022/01/14 13:34:37;;;;;;;11.60;4.75;;;;;;;;;;4952808;28;20603;-73
2022/01/14 13:37:03;;;;;;;7.90;4.32;;;;;;;;;;4970464;28;20497;-72
2022/01/14 13:39:29;;;;;;;11.55;4.45;;;;;;;;;;4952426;28;20488;-72
2022/01/14 13:41:54;;;;;;;8.95;4.28;;;;;;;;;;4952577;28;20485;-72
2022/01/14 13:44:22;;;;;;;9.00;4.35;;;;;;;;;;4970112;28;20428;-72
2022/01/14 13:46:55;;;;;;;12.13;4.72;;;;;;;;;;4952699;28;20341;-73
2022/01/14 13:49:23;;;;;;;9.10;3.95;;;;;;;;;;4969541;28;20029;-72
2022/01/14 13:52:11;;;;;;;9.63;4.57;;;;;;;;;;4953378;28;20444;-73
2022/01/14 13:54:38;;;;;;;6.63;4.13;;;;;;;;;;4970627;28;20417;-72
2022/01/14 13:57:15;;;;;;;9.82;4.18;;;;;;;;;;4969941;28;20427;-72
2022/01/14 13:59:41;;;;;;;7.97;3.80;;;;;;;;;;4952440;28;20029;-74
2022/01/14 14:02:08;;;;;;;8.00;4.18;;;;;;;;;;4951863;28;20622;-72
2022/01/14 14:04:42;;;;;;;10.05;4.80;;;;;;;;;;4970066;28;20321;-72
2022/01/14 14:07:09;;;;;;;10.82;4.68;;;;;;;;;;4969944;28;20029;-72
2022/01/14 14:09:50;;;;;;;9.93;4.28;;;;;;;;;;4952674;28;20033;-72
2022/01/14 14:15:49;;;;;;;9.63;4.68;;;;;;;;;;4954431;28;20340;-72
2022/01/14 14:18:07;;;;;;;9.90;4.97;;;;;;;;;;4941778;28;20468;-73
2022/01/14 14:20:34;;;;;;;8.88;5.30;;;;;;;;;;4951770;28;20364;-72
2022/01/14 14:23:24;;;;;;;9.32;4.53;;;;;;;;;;4952225;28;20433;-71
2022/01/14 14:25:52;;;;;;;8.77;4.57;;;;;;;;;;4969858;28;20349;-72
2022/01/14 14:28:26;;;;;;;7.88;5.03;;;;;;;;;;4969535;28;20132;-72
2022/01/14 14:30:51;;;;;;;8.38;4.85;;;;;;;;;;4971586;28;20456;-72
2022/01/14 14:33:21;;;;;;;6.90;4.32;;;;;;;;;;4951712;28;20401;-72
2022/01/14 14:35:48;;;;;;;9.55;5.00;;;;;;;;;;4969756;28;20542;-72
2022/01/14 14:38:18;;;;;;;9.18;4.00;;;;;;;;;;4970136;28;20359;-73
2022/01/14 14:40:49;;;;;;;11.40;4.50;;;;;;;;;;4969613;28;20033;-72
2022/01/14 14:43:15;;;;;;;10.48;4.03;;;;;;;;;;4951810;28;20391;-72
2022/01/14 14:45:40;;;;;;;6.78;4.10;;;;;;;;;;4969267;28;20377;-72
2022/01/14 14:48:07;;;;;;;8.05;4.60;;;;;;;;;;4952011;28;20479;-73
2022/01/14 14:50:33;;;;;;;7.30;4.47;;;;;;;;;;4936224;28;20416;-72
2022/01/14 14:53:00;;;;;;;10.55;4.78;;;;;;;;;;4968141;28;20411;-72
2022/01/14 14:55:26;;;;;;;7.22;4.13;;;;;;;;;;4951422;28;20332;-72
2022/01/14 14:57:52;;;;;;;6.68;3.92;;;;;;;;;;4951452;28;20322;-72
2022/01/14 15:00:21;;;;;;;8.52;4.43;;;;;;;;;;4969731;28;20098;-72
2022/01/14 15:02:51;;;;;;;6.88;4.25;;;;;;;;;;4968768;28;20385;-72
2022/01/14 15:05:17;;;;;;;8.00;3.95;;;;;;;;;;4969903;28;20030;-72
2022/01/14 15:07:43;;;;;;;9.40;4.05;;;;;;;;;;4968872;28;20045;-73